Time;durP1;ratioP1;P1;durP2;ratioP2;P2;SDS_P1;SDS_P2;PMS_P1;PMS_P2;Temp;Humidity;BMP_temperature;BMP_pressure;BME280_temperature;BME280_humidity;BME280_pressure;Samples;Min_cycle;Max_cycle;Signal;HPM_P1;HPM_P2
2020/12/19 00:00:46;;;;;;;;;30.33;29.00;;;;;2.98;67.12;102704.28;4419576;32;8969;-75
2020/12/19 00:03:44;;;;;;;;;33.33;30.00;;;;;2.92;67.02;102702.50;4417252;32;8899;-76
2020/12/19 00:06:12;;;;;;;;;38.33;36.00;;;;;2.88;66.77;102704.03;4418941;32;8955;-76
2020/12/19 00:08:57;;;;;;;;;33.00;32.67;;;;;2.82;67.16;102712.31;4426009;32;8968;-76
2020/12/19 00:11:53;;;;;;;;;43.00;42.00;;;;;2.94;66.99;102710.47;4433540;32;8962;-76
2020/12/19 00:14:22;;;;;;;;;52.00;42.00;;;;;2.87;67.29;102709.72;4432807;32;8922;-76
2020/12/19 00:17:03;;;;;;;;;40.00;39.67;;;;;3.06;67.17;102712.16;4434959;32;8923;-75
2020/12/19 00:20:00;;;;;;;;;41.67;38.33;;;;;3.09;67.47;102704.59;4433397;32;8896;-75
2020/12/19 00:22:56;;;;;;;;;36.67;36.67;;;;;3.05;67.20;102707.78;4433687;32;8935;-76
2020/12/19 00:25:52;;;;;;;;;52.67;46.00;;;;;3.13;67.02;102703.03;4417972;32;8953;-76
2020/12/19 00:28:47;;;;;;;;;60.33;50.00;;;;;3.14;66.99;102704.72;4419952;32;9611;-75
2020/12/19 00:31:43;;;;;;;;;63.67;52.33;;;;;3.12;67.34;102698.66;4434636;32;8900;-76
2020/12/19 00:34:32;;;;;;;;;66.67;56.33;;;;;3.20;66.85;102701.06;4421615;32;8921;-75
2020/12/19 00:37:27;;;;;;;;;66.67;53.33;;;;;3.10;66.79;102704.34;4433052;32;8942;-75
2020/12/19 00:40:10;;;;;;;;;66.67;56.67;;;;;2.92;67.11;102702.50;4434120;32;8910;-76
2020/12/19 00:43:07;;;;;;;;;68.33;55.00;;;;;3.06;66.80;102690.28;4432062;32;8884;-76
2020/12/19 00:45:34;;;;;;;;;46.00;36.33;;;;;2.91;67.03;102686.31;4434959;32;8895;-76
2020/12/19 00:48:02;;;;;;;;;75.00;57.67;;;;;3.03;66.71;102681.75;4432577;32;8925;-76
2020/12/19 00:50:30;;;;;;;;;70.00;57.00;;;;;2.96;66.98;102683.72;4434519;32;8891;-76
2020/12/19 00:53:26;;;;;;;;;67.00;56.33;;;;;2.91;66.87;102686.31;4432576;32;8953;-76
2020/12/19 00:56:24;;;;;;;;;73.67;60.00;;;;;2.99;66.88;102684.13;4433760;32;8946;-76
2020/12/19 00:58:53;;;;;;;;;72.67;59.33;;;;;2.92;67.24;102688.84;4433628;32;8887;-76
2020/12/19 01:01:23;;;;;;;;;65.67;50.67;;;;;3.04;67.03;102683.41;4435404;32;8906;-76
2020/12/19 01:04:18;;;;;;;;;80.67;65.67;;;;;2.94;67.59;102680.41;4436491;32;9066;-76
2020/12/19 01:06:47;;;;;;;;;73.33;60.00;;;;;3.04;67.40;102684.25;4435099;32;8921;-75
2020/12/19 01:09:44;;;;;;;;;63.33;52.67;;;;;2.95;67.45;102680.16;4433551;32;8888;-75
2020/12/19 01:12:24;;;;;;;;;74.67;61.00;;;;;2.99;67.23;102675.91;4435484;32;8914;-75
2020/12/19 01:15:19;;;;;;;;;74.33;61.33;;;;;2.99;67.18;102670.44;4434957;32;8931;-76
2020/12/19 01:17:47;;;;;;;;;75.00;59.67;;;;;3.06;67.09;102682.09;4437153;32;8983;-76
2020/12/19 01:20:43;;;;;;;;;77.33;57.33;;;;;2.78;67.87;102670.94;4435780;32;8932;-74
2020/12/19 01:23:39;;;;;;;;;81.67;65.33;;;;;2.87;67.14;102676.94;4433123;32;8888;-75
2020/12/19 01:26:35;;;;;;;;;76.00;57.33;;;;;2.82;67.27;102674.03;4429200;32;8906;-75
2020/12/19 01:29:31;;;;;;;;;70.67;55.33;;;;;2.88;67.33;102671.22;4420293;32;8986;-74
2020/12/19 01:32:26;;;;;;;;;66.33;56.33;;;;;2.81;67.40;102659.53;4419130;32;8898;-75
2020/12/19 01:34:55;;;;;;;;;72.00;59.00;;;;;2.92;67.13;102656.03;4419748;32;8909;-74
2020/12/19 01:37:26;;;;;;;;;61.67;54.00;;;;;2.94;67.35;102664.00;4418149;32;8894;-76
2020/12/19 01:40:07;;;;;;;;;62.00;53.67;;;;;2.94;67.16;102667.56;4419419;32;8897;-76
2020/12/19 01:43:03;;;;;;;;;62.33;51.67;;;;;2.82;67.63;102663.94;4420246;32;9018;-76
2020/12/19 01:45:59;;;;;;;;;62.00;53.00;;;;;2.86;66.88;102661.59;4420205;32;8903;-76
2020/12/19 01:48:49;;;;;;;;;58.33;51.67;;;;;2.76;67.89;102662.12;4420848;32;8897;-76
2020/12/19 01:51:47;;;;;;;;;59.00;51.33;;;;;2.87;67.42;102652.31;4428657;32;8930;-76
2020/12/19 01:54:42;;;;;;;;;54.00;46.33;;;;;2.84;67.46;102650.03;4419972;32;8910;-76
2020/12/19 01:57:40;;;;;;;;;56.67;47.67;;;;;2.74;67.44;102645.12;4432535;32;8888;-76
2020/12/19 02:00:42;;;;;;;;;48.67;45.67;;;;;2.71;67.58;102648.34;4432818;32;8875;-76
2020/12/19 02:03:14;;;;;;;;;65.00;51.67;;;;;2.82;67.23;102642.06;4429131;32;8885;-76
2020/12/19 02:06:13;;;;;;;;;61.00;48.33;;;;;2.90;67.22;102641.75;4421508;32;9054;-76
2020/12/19 02:09:11;;;;;;;;;55.33;47.67;;;;;2.87;67.26;102644.97;4433148;32;9003;-76
2020/12/19 02:12:09;;;;;;;;;63.00;53.67;;;;;2.81;67.80;102645.03;4434554;32;9572;-76
2020/12/19 02:15:05;;;;;;;;;65.67;49.00;;;;;2.64;68.42;102642.12;4424594;32;9034;-76
2020/12/19 02:17:31;;;;;;;;;54.33;49.67;;;;;2.77;67.92;102640.06;4436604;32;8910;-76
2020/12/19 02:20:27;;;;;;;;;58.00;49.67;;;;;2.79;67.76;102643.37;4434979;32;8892;-76
2020/12/19 02:22:56;;;;;;;;;53.00;46.33;;;;;2.83;67.95;102643.75;4435643;32;8933;-76
2020/12/19 02:25:23;;;;;;;;;54.67;46.00;;;;;2.83;67.99;102646.47;4435704;32;8894;-76
2020/12/19 02:28:19;;;;;;;;;68.67;57.00;;;;;2.84;67.70;102642.69;4435149;32;8923;-76
2020/12/19 02:30:46;;;;;;;;;67.67;56.00;;;;;2.70;68.15;102633.84;4422699;32;8895;-77
2020/12/19 02:33:43;;;;;;;;;66.33;54.00;;;;;2.68;67.99;102632.38;4435414;32;8900;-77
2020/12/19 02:36:39;;;;;;;;;72.33;56.33;;;;;2.71;67.81;102634.69;4433555;32;8980;-76
2020/12/19 02:39:35;;;;;;;;;68.67;52.33;;;;;2.82;67.65;102636.59;4434465;32;8884;-76
2020/12/19 02:42:30;;;;;;;;;59.67;52.00;;;;;2.78;67.68;102639.00;4435399;32;8915;-76
2020/12/19 02:44:58;;;;;;;;;70.00;59.67;;;;;2.65;68.06;102636.41;4435396;32;8937;-76
2020/12/19 02:47:53;;;;;;;;;63.00;51.33;;;;;2.72;67.96;102634.44;4432868;32;8910;-76
2020/12/19 02:50:49;;;;;;;;;72.33;56.33;;;;;2.79;67.82;102637.91;4434700;32;8938;-76
2020/12/19 02:53:45;;;;;;;;;69.33;55.33;;;;;2.70;68.25;102636.56;4435023;32;8896;-76
2020/12/19 02:56:40;;;;;;;;;53.33;48.00;;;;;2.69;68.61;102634.09;4435613;32;8908;-76
2020/12/19 02:59:36;;;;;;;;;59.67;48.33;;;;;2.64;68.70;102637.50;4434957;32;8900;-76
2020/12/19 03:02:24;;;;;;;;;66.33;51.33;;;;;2.56;68.95;102626.87;4433653;32;8916;-76
2020/12/19 03:05:19;;;;;;;;;59.67;51.67;;;;;2.67;68.81;102634.28;4434903;32;8904;-76
2020/12/19 03:07:46;;;;;;;;;64.67;52.00;;;;;2.72;68.69;102633.59;4435135;32;8887;-76
2020/12/19 03:10:42;;;;;;;;;70.00;55.00;;;;;2.64;69.00;102637.50;4434228;32;8880;-76
2020/12/19 03:13:40;;;;;;;;;70.00;58.67;;;;;2.62;69.11;102631.44;4434701;32;8900;-76
2020/12/19 03:16:37;;;;;;;;;60.33;50.67;;;;;2.75;68.56;102635.88;4434222;32;8896;-74
2020/12/19 03:19:32;;;;;;;;;70.33;55.00;;;;;2.87;68.21;102635.94;4434514;32;8956;-75
2020/12/19 03:22:28;;;;;;;;;75.00;59.00;;;;;2.81;68.29;102636.84;4432904;32;8896;-75
2020/12/19 03:25:25;;;;;;;;;43.67;43.00;;;;;2.80;68.56;102633.28;4432332;32;8884;-75
2020/12/19 03:28:21;;;;;;;;;65.67;55.33;;;;;2.81;68.79;102629.47;4433954;32;8903;-75
2020/12/19 03:31:16;;;;;;;;;70.00;54.00;;;;;2.97;68.18;102623.34;4434060;32;8946;-76
2020/12/19 03:33:44;;;;;;;;;75.00;59.67;;;;;2.78;68.45;102624.50;4418364;32;8901;-75
2020/12/19 03:36:41;;;;;;;;;76.67;59.00;;;;;2.68;68.60;102630.47;4426244;32;8947;-75
2020/12/19 03:39:31;;;;;;;;;82.00;63.33;;;;;2.77;68.71;102626.41;4435362;32;8914;-75
2020/12/19 03:41:59;;;;;;;;;73.67;57.67;;;;;2.72;68.64;102630.88;4433605;32;9628;-75
2020/12/19 03:44:55;;;;;;;;;75.33;62.00;;;;;2.76;68.96;102629.34;4433889;32;8942;-75
2020/12/19 03:47:51;;;;;;;;;70.67;57.67;;;;;2.73;68.88;102629.81;4433684;32;8950;-76
2020/12/19 03:50:49;;;;;;;;;78.00;63.00;;;;;2.67;69.00;102633.47;4433868;32;8891;-76
2020/12/19 03:53:45;;;;;;;;;51.33;46.00;;;;;2.69;68.90;102625.88;4432628;32;8973;-76
2020/12/19 03:56:40;;;;;;;;;33.33;33.33;;;;;2.67;68.96;102631.56;4434028;32;9001;-76
2020/12/19 03:59:36;;;;;;;;;60.33;48.00;;;;;2.67;68.95;102626.09;4434136;32;8968;-76
2020/12/19 04:02:31;;;;;;;;;44.00;43.33;;;;;2.68;68.83;102626.91;4433590;32;8896;-75
2020/12/19 04:05:27;;;;;;;;;60.33;52.00;;;;;2.68;68.97;102619.56;4433784;32;8903;-76
2020/12/19 04:08:24;;;;;;;;;65.00;52.00;;;;;2.77;68.48;102623.66;4419747;32;9032;-74
2020/12/19 04:11:19;;;;;;;;;59.67;51.67;;;;;2.87;68.08;102616.78;4418873;32;8898;-74
2020/12/19 04:14:15;;;;;;;;;60.67;49.67;;;;;2.73;68.86;102618.88;4418224;32;8903;-75
2020/12/19 04:17:12;;;;;;;;;41.67;41.67;;;;;2.76;68.60;102615.66;4417898;32;8930;-75
2020/12/19 04:20:09;;;;;;;;;57.33;47.33;;;;;2.73;68.76;102627.91;4418979;32;8944;-75
2020/12/19 04:22:37;;;;;;;;;56.33;46.67;;;;;2.72;69.22;102628.12;4419912;32;8919;-75
2020/12/19 04:25:06;;;;;;;;;57.00;49.00;;;;;2.73;69.13;102621.59;4417589;32;9071;-75
2020/12/19 04:27:48;;;;;;;;;53.67;47.33;;;;;2.74;68.96;102626.00;4419886;32;8920;-75
2020/12/19 04:30:44;;;;;;;;;65.67;51.33;;;;;2.77;68.59;102631.84;4421376;32;8892;-75
2020/12/19 04:33:40;;;;;;;;;62.33;51.00;;;;;2.81;68.63;102621.28;4434489;32;9004;-76
2020/12/19 04:36:37;;;;;;;;;68.33;57.00;;;;;2.73;68.87;102627.91;4435110;32;8907;-76
2020/12/19 04:39:33;;;;;;;;;78.33;59.00;;;;;2.76;69.02;102627.47;4421173;32;8902;-75
2020/12/19 04:42:02;;;;;;;;;77.33;60.00;;;;;2.71;69.01;102634.69;4421942;32;8936;-76
2020/12/19 04:44:31;;;;;;;;;75.67;59.33;;;;;2.77;68.72;102640.06;4422669;32;9005;-75
2020/12/19 04:47:26;;;;;;;;;78.67;63.00;;;;;2.72;68.80;102636.34;4420964;32;8910;-76
2020/12/19 04:50:25;;;;;;;;;68.00;55.00;;;;;2.69;69.17;102634.09;4422043;32;8903;-76
2020/12/19 04:53:21;;;;;;;;;69.67;55.00;;;;;2.67;69.30;102641.66;4421199;32;8930;-77
2020/12/19 04:56:18;;;;;;;;;72.00;58.67;;;;;2.60;69.32;102641.72;4421703;32;8895;-76
2020/12/19 04:59:02;;;;;;;;;46.67;42.33;;;;;2.62;69.51;102638.78;4426342;32;8913;-76
2020/12/19 05:01:59;;;;;;;;;40.67;26.00;;;;;2.71;69.02;102634.69;4435806;32;8880;-76
2020/12/19 05:04:57;;;;;;;;;56.33;48.67;;;;;2.67;69.25;102637.03;4436206;32;8903;-76
2020/12/19 05:07:39;;;;;;;;;75.33;59.33;;;;;2.69;69.13;102647.75;4435945;32;8883;-76
2020/12/19 05:10:37;;;;;;;;;65.00;50.00;;;;;2.62;69.37;102642.34;4436111;32;8991;-76
2020/12/19 05:13:32;;;;;;;;;68.67;56.33;;;;;2.65;69.16;102643.78;4436274;32;8904;-76
2020/12/19 05:16:00;;;;;;;;;70.33;58.00;;;;;2.67;68.91;102641.66;4437136;32;8934;-75
2020/12/19 05:18:49;;;;;;;;;73.00;56.67;;;;;2.67;69.26;102645.22;4437736;32;8882;-75
2020/12/19 05:21:45;;;;;;;;;48.33;45.00;;;;;2.67;68.91;102636.19;4421099;32;8910;-75
2020/12/19 05:24:44;;;;;;;;;61.00;50.33;;;;;2.63;68.97;102643.19;4420477;32;8944;-76
2020/12/19 05:27:42;;;;;;;;;78.33;63.00;;;;;2.64;68.98;102645.69;4420818;32;8946;-75
2020/12/19 05:30:39;;;;;;;;;63.00;54.67;;;;;2.66;69.24;102646.28;4425218;32;8903;-75
2020/12/19 05:33:42;;;;;;;;;63.00;52.67;;;;;2.68;69.10;102646.03;4420423;32;8922;-75
2020/12/19 05:36:39;;;;;;;;;73.33;52.33;;;;;2.72;68.94;102647.28;4419523;32;9555;-75
2020/12/19 05:39:35;;;;;;;;;65.00;53.67;;;;;2.72;68.85;102645.38;4433720;32;8994;-76
2020/12/19 05:42:03;;;;;;;;;71.33;55.67;;;;;2.80;68.88;102649.69;4435864;32;8883;-74
2020/12/19 05:44:52;;;;;;;;;68.67;53.00;;;;;2.75;68.91;102652.25;4421127;32;8924;-74
2020/12/19 05:47:35;;;;;;;;;64.67;51.00;;;;;2.70;68.97;102661.16;4419228;32;8897;-75
2020/12/19 05:50:03;;;;;;;;;56.00;47.33;;;;;2.61;69.75;102662.56;4416134;32;8887;-75
2020/12/19 05:53:02;;;;;;;;;64.67;51.67;;;;;2.71;69.37;102667.47;4436086;32;8896;-75
2020/12/19 05:55:59;;;;;;;;;71.67;55.33;;;;;2.65;70.01;102673.84;4434730;32;8895;-75
2020/12/19 05:59:00;;;;;;;;;62.33;47.67;;;;;2.66;69.95;102681.81;4434748;32;8961;-79
2020/12/19 06:02:00;;;;;;;;;60.67;52.67;;;;;2.66;70.36;102675.50;4422120;32;8892;-74
2020/12/19 06:04:53;;;;;;;;;62.00;52.33;;;;;2.78;69.73;102685.44;4421277;32;8944;-75
2020/12/19 06:07:37;;;;;;;;;54.67;47.33;;;;;2.69;70.23;102684.09;4434291;32;8898;-75
2020/12/19 06:10:33;;;;;;;;;58.67;48.00;;;;;2.74;70.14;102686.12;4426014;32;8955;-75
2020/12/19 06:13:19;;;;;;;;;65.00;52.00;;;;;2.72;69.98;102696.44;4431982;32;8953;-74
2020/12/19 06:16:07;;;;;;;;;50.67;46.67;;;;;2.86;69.71;102695.22;4432018;32;8903;-77
2020/12/19 06:19:18;;;;;;;;;60.00;49.67;;;;;2.83;69.73;102692.09;4425565;32;8983;-75
2020/12/19 06:22:14;;;;;;;;;56.67;48.33;;;;;2.81;70.09;102692.34;4418405;32;8906;-75
2020/12/19 06:25:10;;;;;;;;;56.00;49.00;;;;;2.90;69.68;102692.84;4418695;32;8915;-75
2020/12/19 06:28:06;;;;;;;;;63.67;52.33;;;;;2.89;69.91;102700.22;4434979;32;8888;-75
2020/12/19 06:31:09;;;;;;;;;63.00;52.00;;;;;2.75;70.65;102709.66;4434348;32;8888;-75
2020/12/19 06:33:42;;;;;;;;;64.00;52.33;;;;;2.79;70.50;102697.22;4435103;32;9602;-75
2020/12/19 06:36:47;;;;;;;;;58.00;50.67;;;;;2.77;70.63;102704.81;4430882;32;8934;-75
2020/12/19 06:39:14;;;;;;;;;38.67;33.00;;;;;2.95;70.20;102706.66;4422400;32;8883;-75
2020/12/19 06:41:54;;;;;;;;;51.33;46.33;;;;;2.87;70.07;102705.09;4424922;32;8946;-75
2020/12/19 06:44:35;;;;;;;;;70.00;56.00;;;;;2.91;69.87;102700.81;4433199;32;8875;-74
2020/12/19 06:47:18;;;;;;;;;76.33;58.33;;;;;2.94;69.60;102703.09;4431958;32;9593;-76
2020/12/19 06:50:16;;;;;;;;;52.67;47.00;;;;;2.96;69.64;102703.69;4427722;32;8892;-76
2020/12/19 06:52:56;;;;;;;;;71.00;51.33;;;;;3.05;69.33;102702.31;4434328;32;8883;-77
2020/12/19 06:55:53;;;;;;;;;58.67;49.00;;;;;3.04;69.59;102705.28;3993303;32;14350540;-77
2020/12/19 06:58:37;;;;;;;;;56.33;49.67;;;;;3.01;69.44;102705.75;4433032;32;13050;-78
2020/12/19 07:01:33;;;;;;;;;67.33;53.00;;;;;3.08;69.41;102701.03;4431817;32;8962;-77
2020/12/19 07:04:33;;;;;;;;;47.33;46.00;;;;;3.18;69.43;102708.66;4432871;32;8883;-76
2020/12/19 07:07:02;;;;;;;;;41.00;40.00;;;;;3.17;69.65;102698.81;4433893;32;8906;-77
2020/12/19 07:10:02;;;;;;;;;53.33;39.33;;;;;3.22;69.92;102701.66;4433959;32;9044;-76
2020/12/19 07:12:58;;;;;;;;;42.00;38.33;;;;;3.29;70.25;102707.84;4434404;32;8965;-76
2020/12/19 07:15:53;;;;;;;;;47.00;42.33;;;;;3.35;70.28;102707.75;4432964;32;8970;-75
2020/12/19 07:18:23;;;;;;;;;43.00;41.67;;;;;3.09;71.48;102702.69;4434048;32;9582;-76
2020/12/19 07:21:19;;;;;;;;;51.00;45.33;;;;;3.21;71.27;102700.81;4433175;32;8891;-77
2020/12/19 07:24:15;;;;;;;;;48.67;42.33;;;;;3.30;70.85;102699.44;4433092;32;8884;-76
2020/12/19 07:27:10;;;;;;;;;44.67;42.67;;;;;3.01;71.77;102700.28;4432787;32;8915;-76
2020/12/19 07:30:06;;;;;;;;;47.00;38.00;;;;;3.26;71.04;102702.88;4422817;32;8929;-78
2020/12/19 07:33:01;;;;;;;;;35.33;33.67;;;;;3.21;71.62;102705.47;4431374;32;8872;-80
2020/12/19 07:35:58;;;;;;;;;47.00;45.00;;;;;3.20;71.49;102703.78;4431521;32;8939;-79
2020/12/19 07:38:46;;;;;;;;;36.67;32.33;;;;;3.37;70.86;102699.31;4426350;32;8948;-79
2020/12/19 07:41:17;;;;;;;;;28.33;26.00;;;;;3.50;70.50;102703.75;4431824;32;12379;-78
2020/12/19 07:44:12;;;;;;;;;47.67;40.00;;;;;3.49;70.41;102697.47;4432221;32;8933;-78
2020/12/19 07:46:56;;;;;;;;;47.00;40.33;;;;;3.52;70.09;102696.97;4432893;32;9005;-78
2020/12/19 07:49:51;;;;;;;;;41.00;41.00;;;;;3.55;70.37;102698.44;4432193;32;8880;-79
2020/12/19 07:52:47;;;;;;;;;47.67;44.33;;;;;3.61;70.13;102695.59;4431907;32;8888;-78
2020/12/19 07:55:14;;;;;;;;;39.67;37.00;;;;;3.56;70.51;102694.63;4433458;32;9579;-78
2020/12/19 07:57:43;;;;;;;;;47.00;40.67;;;;;3.56;70.33;102702.84;4433995;32;8890;-79
2020/12/19 08:00:24;;;;;;;;;28.33;27.67;;;;;3.60;70.08;102701.28;4432966;32;12327;-79
2020/12/19 08:02:52;;;;;;;;;39.00;38.00;;;;;3.53;70.08;102695.94;4433806;32;12338;-79
2020/12/19 08:05:20;;;;;;;;;45.67;40.33;;;;;3.53;70.31;102687.72;4434471;32;8903;-78
2020/12/19 08:08:11;;;;;;;;;46.00;41.67;;;;;3.60;70.77;102687.59;4424041;32;12366;-78
2020/12/19 08:11:07;;;;;;;;;43.33;42.33;;;;;3.60;70.57;102687.59;4431973;32;12423;-79
2020/12/19 08:14:03;;;;;;;;;48.00;44.33;;;;;3.55;70.60;102691.06;4433416;32;12361;-79
2020/12/19 08:16:59;;;;;;;;;32.33;32.00;;;;;3.66;70.18;102686.66;4431349;32;12340;-79
2020/12/19 08:19:35;;;;;;;;;37.67;35.00;;;;;3.52;70.30;102686.03;4433487;32;12340;-78
2020/12/19 08:22:05;;;;;;;;;26.25;26.25;;;;;3.77;70.00;102682.28;4429211;32;12953;-78
2020/12/19 08:24:55;;;;;;;;;39.33;34.67;;;;;3.78;69.74;102675.75;4432456;32;12308;-78
2020/12/19 08:27:44;;;;;;;;;33.25;32.50;;;;;3.62;70.10;102675.38;4433032;32;12318;-78
2020/12/19 08:30:27;;;;;;;;;37.25;32.50;;;;;3.66;70.15;102670.25;4431027;32;12395;-78
2020/12/19 08:33:25;;;;;;;;;32.00;31.25;;;;;3.67;70.04;102671.06;4430039;32;12412;-78
2020/12/19 08:36:21;;;;;;;;;33.00;30.00;;;;;3.70;69.73;102665.97;4430948;32;12478;-78
2020/12/19 08:39:18;;;;;;;;;30.33;29.33;;;;;3.72;69.57;102666.56;4432990;32;12336;-78
2020/12/19 08:42:14;;;;;;;;;34.67;30.33;;;;;3.34;70.63;102661.50;4428525;32;12404;-78
2020/12/19 08:45:13;;;;;;;;;33.33;28.33;;;;;3.61;70.21;102654.53;4432642;32;12312;-78
2020/12/19 08:47:41;;;;;;;;;32.25;31.00;;;;;3.71;69.92;102653.13;4432521;32;12381;-78
2020/12/19 08:50:24;;;;;;;;;32.75;27.75;;;;;3.76;69.15;102648.59;4430771;32;12435;-77
2020/12/19 08:53:27;;;;;;;;;25.25;25.25;;;;;3.54;69.57;102650.25;4432378;32;12358;-78
2020/12/19 08:56:25;;;;;;;;;28.50;27.00;;;;;3.51;69.07;102651.53;4432188;32;12409;-78
2020/12/19 08:59:26;;;;;;;;;24.00;24.00;;;;;3.45;69.79;102644.31;4433169;32;12515;-78
2020/12/19 09:02:22;;;;;;;;;25.75;24.50;;;;;3.73;68.94;102643.59;4432467;32;12303;-78
2020/12/19 09:05:44;;;;;;;;;30.75;26.50;;;;;3.89;68.42;102647.50;4442939;32;12354;-78
2020/12/19 09:08:45;;;;;;;;;28.75;26.50;;;;;3.99;68.28;102646.91;4416915;32;12332;-78
2020/12/19 09:11:40;;;;;;;;;31.75;29.75;;;;;3.79;68.37;102636.34;4416164;32;12446;-78
2020/12/19 09:14:36;;;;;;;;;37.50;31.50;;;;;4.04;68.03;102642.38;4416128;32;12364;-78
2020/12/19 09:17:32;;;;;;;;;25.00;25.00;;;;;4.15;67.70;102633.34;4430617;32;12311;-78
2020/12/19 09:20:13;;;;;;;;;31.50;28.75;;;;;4.19;66.78;102625.47;4443645;32;12340;-77
2020/12/19 09:23:09;;;;;;;;;30.50;24.50;;;;;4.09;67.30;102633.47;4448400;32;12306;-78
2020/12/19 09:25:46;;;;;;;;;31.75;30.50;;;;;4.18;66.56;102621.91;4435944;32;12322;-77
2020/12/19 09:28:14;;;;;;;;;31.75;26.00;;;;;4.14;66.96;102633.56;4435629;32;12403;-76
2020/12/19 09:31:09;;;;;;;;;33.00;31.75;;;;;4.08;66.35;102629.06;4417286;32;12290;-76
2020/12/19 09:33:55;;;;;;;;;27.25;25.75;;;;;4.17;66.54;102630.34;4437555;32;12983;-76
2020/12/19 09:36:52;;;;;;;;;30.75;29.25;;;;;4.00;66.64;102627.53;4439781;32;12464;-76
2020/12/19 09:39:22;;;;;;;;;21.75;18.00;;;;;4.18;66.60;102621.91;4422112;32;12325;-76
2020/12/19 09:42:07;;;;;;;;;24.75;22.50;;;;;4.11;66.86;102623.09;4447377;32;12283;-76
2020/12/19 09:44:36;;;;;;;;;30.00;25.50;;;;;4.18;66.42;102627.38;4451519;32;12343;-76
2020/12/19 09:47:09;;;;;;;;;30.75;27.25;;;;;4.27;66.26;102616.87;4438318;32;12307;-76
2020/12/19 09:49:37;;;;;;;;;35.25;30.00;;;;;4.05;67.01;102619.41;4450837;32;12420;-77
2020/12/19 09:52:19;;;;;;;;;30.00;29.75;;;;;4.15;66.46;102616.91;4451568;32;12317;-77
2020/12/19 09:55:15;;;;;;;;;17.50;17.00;;;;;4.19;66.56;102617.25;4449036;32;12319;-77
2020/12/19 09:58:10;;;;;;;;;28.75;28.75;;;;;4.40;66.09;102621.25;4449965;32;12339;-77
2020/12/19 10:01:06;;;;;;;;;34.00;33.00;;;;;3.77;67.90;102622.91;4449710;32;12370;-78
2020/12/19 10:04:03;;;;;;;;;24.00;21.75;;;;;3.84;67.87;102614.56;4449595;32;12354;-76
2020/12/19 10:06:35;;;;;;;;;32.00;32.00;;;;;3.60;68.58;102613.72;4450597;32;12435;-77
2020/12/19 10:09:06;;;;;;;;;44.33;37.33;;;;;3.54;69.23;102607.31;4450649;32;12479;-76
2020/12/19 10:12:02;;;;;;;;;31.25;28.50;;;;;3.88;68.44;102608.34;4450192;32;12326;-77
2020/12/19 10:14:58;;;;;;;;;44.67;38.00;;;;;3.98;68.55;102607.75;4449874;32;12354;-75
2020/12/19 10:17:25;;;;;;;;;35.25;34.50;;;;;4.08;68.30;102598.94;4450864;32;12301;-76
2020/12/19 10:20:21;;;;;;;;;35.50;33.25;;;;;4.21;67.96;102609.63;4438783;32;12539;-77
2020/12/19 10:22:57;;;;;;;;;30.75;27.75;;;;;4.21;68.02;102606.88;4450772;32;12301;-77
2020/12/19 10:25:54;;;;;;;;;38.00;35.50;;;;;4.25;67.45;102607.25;4448634;32;12358;-76
2020/12/19 10:28:49;;;;;;;;;42.00;33.25;;;;;4.18;68.02;102594.50;4448677;32;12472;-76
2020/12/19 10:31:45;;;;;;;;;41.00;36.50;;;;;4.15;67.96;102592.25;4449562;32;12382;-76
2020/12/19 10:34:41;;;;;;;;;39.25;36.25;;;;;4.24;68.35;102597.38;4449181;32;13197;-77
2020/12/19 10:37:38;;;;;;;;;34.25;30.75;;;;;3.97;69.14;102589.66;4439684;32;12318;-76
2020/12/19 10:40:34;;;;;;;;;32.00;32.00;;;;;3.93;69.71;102591.22;4438706;32;13063;-76
2020/12/19 10:43:29;;;;;;;;;33.75;29.25;;;;;4.16;69.35;102590.34;4439332;32;12325;-76
2020/12/19 10:46:13;;;;;;;;;32.00;29.25;;;;;4.30;69.11;102585.44;4450153;32;12310;-77
2020/12/19 10:48:42;;;;;;;;;28.00;25.50;;;;;4.26;69.05;102578.78;4449673;32;12421;-77
2020/12/19 10:51:14;;;;;;;;;38.25;37.75;;;;;4.27;69.19;102583.16;4435566;32;12298;-76
2020/12/19 10:54:09;;;;;;;;;36.50;34.50;;;;;4.25;69.26;102579.84;4449129;32;12370;-77
2020/12/19 10:57:05;;;;;;;;;36.75;36.25;;;;;4.31;68.84;102578.87;4438608;32;12521;-77
2020/12/19 11:00:05;;;;;;;;;33.75;29.00;;;;;4.28;69.19;102582.09;4448707;32;13133;-74
2020/12/19 11:02:32;;;;;;;;;39.25;35.50;;;;;3.93;70.13;102572.06;4450541;32;12349;-76
2020/12/19 11:05:28;;;;;;;;;36.25;35.25;;;;;4.06;70.33;102581.91;4449076;32;12367;-77
2020/12/19 11:08:24;;;;;;;;;39.75;36.00;;;;;4.12;70.12;102576.28;4446673;32;12385;-76
2020/12/19 11:11:20;;;;;;;;;59.00;44.33;;;;;4.22;70.32;102580.31;4435326;32;12351;-76
2020/12/19 11:13:55;;;;;;;;;41.00;37.00;;;;;4.19;70.16;102571.53;4449856;32;8876;-76
2020/12/19 11:16:26;;;;;;;;;49.33;44.33;;;;;3.63;71.67;102578.50;4443212;32;12364;-77
2020/12/19 11:19:22;;;;;;;;;36.00;32.75;;;;;3.89;71.59;102574.44;4422636;32;12335;-76
2020/12/19 11:21:58;;;;;;;;;40.75;35.50;;;;;4.04;70.88;102573.09;4421416;32;12285;-76
2020/12/19 11:24:26;;;;;;;;;46.00;38.67;;;;;4.13;70.71;102567.00;4429333;32;12384;-76
2020/12/19 11:27:22;;;;;;;;;42.33;37.33;;;;;4.11;70.58;102560.94;4417828;32;12362;-77
2020/12/19 11:30:18;;;;;;;;;38.67;30.00;;;;;4.11;70.64;102560.94;4407188;32;12327;-77
2020/12/19 11:33:14;;;;;;;;;45.50;37.75;;;;;3.98;70.91;102555.72;4418235;32;12339;-77
2020/12/19 11:35:41;;;;;;;;;49.67;42.33;;;;;3.59;72.56;102555.41;4418109;32;12364;-78
2020/12/19 11:38:37;;;;;;;;;47.33;39.00;;;;;3.91;71.69;102557.78;4447409;32;8912;-77
2020/12/19 11:41:04;;;;;;;;;32.00;29.00;;;;;3.70;72.58;102553.75;4436547;32;8888;-76
2020/12/19 11:43:53;;;;;;;;;49.67;43.00;;;;;3.95;71.88;102556.22;4434844;32;8973;-77
2020/12/19 11:46:44;;;;;;;;;37.00;34.33;;;;;4.05;71.66;102553.69;4419300;32;8892;-78
2020/12/19 11:49:40;;;;;;;;;35.25;32.75;;;;;4.16;71.23;102550.09;4418285;32;12418;-77
2020/12/19 11:52:10;;;;;;;;;44.00;33.25;;;;;4.08;71.17;102550.47;4422679;32;12310;-76
2020/12/19 11:54:39;;;;;;;;;49.00;43.00;;;;;4.13;71.14;102555.22;4419045;32;12373;-77
2020/12/19 11:57:35;;;;;;;;;34.00;33.33;;;;;4.08;71.38;102553.22;4418955;32;8908;-76
2020/12/19 12:00:30;;;;;;;;;42.33;41.00;;;;;4.03;72.02;102563.22;4418256;32;12353;-77
2020/12/19 12:03:19;;;;;;;;;36.50;34.25;;;;;4.13;71.64;102563.44;4418490;32;8920;-76
2020/12/19 12:06:15;;;;;;;;;35.75;29.75;;;;;4.27;71.16;102559.34;4416527;32;12410;-77
2020/12/19 12:09:10;;;;;;;;;36.75;30.25;;;;;4.15;71.75;102558.56;4426569;32;12367;-78
2020/12/19 12:12:07;;;;;;;;;45.00;40.00;;;;;3.80;72.89;102562.19;4419997;32;12389;-77
2020/12/19 12:15:03;;;;;;;;;39.33;35.33;;;;;3.97;72.82;102562.28;4431028;32;12414;-78
2020/12/19 12:17:31;;;;;;;;;47.67;41.33;;;;;3.89;72.79;102562.66;4433611;32;12363;-78
2020/12/19 12:20:27;;;;;;;;;28.33;28.33;;;;;4.01;72.85;102563.47;4415911;32;12386;-77
2020/12/19 12:23:22;;;;;;;;;34.25;33.50;;;;;4.06;72.55;102554.53;4418736;32;12348;-77
2020/12/19 12:26:26;;;;;;;;;33.25;29.00;;;;;4.01;72.65;102560.75;4427252;32;12340;-78
2020/12/19 12:28:56;;;;;;;;;22.00;21.33;;;;;4.12;72.58;102562.59;4433243;32;12328;-77
2020/12/19 12:31:26;;;;;;;;;36.50;35.75;;;;;4.17;72.22;102565.47;4433391;32;12473;-73
2020/12/19 12:34:11;;;;;;;;;33.00;33.00;;;;;4.27;71.96;102562.09;4432023;32;12407;-73
2020/12/19 12:37:07;;;;;;;;;34.33;33.67;;;;;3.99;73.41;102564.78;4428039;32;12325;-74
2020/12/19 12:40:03;;;;;;;;;39.33;38.00;;;;;3.99;73.09;102562.91;4431226;32;13073;-74
2020/12/19 12:42:59;;;;;;;;;31.00;30.50;;;;;4.25;72.45;102561.50;4418179;32;12385;-72
2020/12/19 12:45:26;;;;;;;;;34.50;34.00;;;;;4.09;73.18;102556.78;4427004;32;12334;-73
2020/12/19 12:47:55;;;;;;;;;39.75;37.00;;;;;4.14;72.64;102555.00;4434344;32;12455;-74
2020/12/19 12:50:51;;;;;;;;;43.75;41.50;;;;;4.27;72.67;102555.78;4432672;32;13124;-73
2020/12/19 12:53:47;;;;;;;;;40.25;37.50;;;;;3.90;73.21;102558.84;4416967;32;12416;-73
2020/12/19 12:56:44;;;;;;;;;36.25;33.00;;;;;4.05;73.30;102561.91;4428402;32;12347;-74
2020/12/19 12:59:41;;;;;;;;;51.00;44.33;;;;;4.21;72.47;102554.00;4437036;32;12398;-74